createdAt,value
2023-06-24T00:03:38.323Z,102336.00
2023-06-24T00:08:42.156Z,102335.69
2023-06-24T00:13:47.251Z,102340.66
2023-06-24T00:18:52.321Z,102350.03
2023-06-24T00:23:56.060Z,102338.37
2023-06-24T00:29:01.582Z,102337.28
2023-06-24T00:34:05.562Z,102337.88
2023-06-24T00:39:09.540Z,102344.66
2023-06-24T00:44:15.033Z,102352.28
2023-06-24T00:49:18.842Z,102345.06
2023-06-24T00:54:22.578Z,102348.25
2023-06-24T00:59:30.193Z,102358.47
2023-06-24T01:04:35.515Z,102361.72
2023-06-24T01:09:39.242Z,102360.59
2023-06-24T01:14:44.411Z,102351.66
2023-06-24T01:20:04.221Z,102347.94
2023-06-24T01:25:23.548Z,102346.78
2023-06-24T01:30:46.250Z,102337.66
2023-06-24T01:35:52.579Z,102328.66
2023-06-24T01:40:57.396Z,102322.44
2023-06-24T01:46:01.613Z,102327.44
2023-06-24T01:51:12.765Z,102326.38
2023-06-24T01:56:18.570Z,102318.28
2023-06-24T02:01:23.424Z,102322.56
2023-06-24T02:06:30.790Z,102316.34
2023-06-24T02:11:36.758Z,102310.88
2023-06-24T02:16:44.695Z,102306.19
2023-06-24T02:21:52.976Z,102304.19
2023-06-24T02:27:00.570Z,102316.22
2023-06-24T02:32:04.532Z,102312.41
2023-06-24T02:37:09.668Z,102302.44
2023-06-24T02:42:13.811Z,102302.28
2023-06-24T02:47:19.164Z,102301.22
2023-06-24T02:52:24.394Z,102313.25
2023-06-24T02:57:28.780Z,102311.22
2023-06-24T03:02:43.817Z,102310.91
2023-06-24T03:07:49.190Z,102314.25
2023-06-24T03:12:53.300Z,102324.50
2023-06-24T03:17:58.314Z,102319.13
2023-06-24T03:23:03.571Z,102314.44
2023-06-24T03:28:08.665Z,102320.38
2023-06-24T03:33:18.347Z,102322.81
2023-06-24T03:38:23.799Z,102317.47
2023-06-24T03:43:27.685Z,102324.44
2023-06-24T03:48:32.495Z,102316.44
2023-06-24T03:53:38.083Z,102324.13
2023-06-24T03:58:42.592Z,102318.84
2023-06-24T04:03:46.411Z,102330.28
2023-06-24T04:08:53.121Z,102317.19
2023-06-24T04:13:56.853Z,102324.00
2023-06-24T04:19:01.538Z,102331.81
2023-06-24T04:24:07.269Z,102337.72
2023-06-24T04:29:11.295Z,102333.56
2023-06-24T04:34:15.664Z,102325.72
2023-06-24T04:39:20.918Z,102333.50
2023-06-24T04:44:24.649Z,102331.84
2023-06-24T04:49:28.351Z,102335.50
2023-06-24T04:54:33.559Z,102337.06
2023-06-24T04:59:37.348Z,102338.13
2023-06-24T05:04:41.085Z,102333.88
2023-06-24T05:09:48.936Z,102344.53
2023-06-24T05:14:53.860Z,102349.56
2023-06-24T05:19:57.674Z,102338.22
2023-06-24T05:25:02.912Z,102344.59
2023-06-24T05:30:07.812Z,102349.28
2023-06-24T05:35:11.727Z,102339.28
2023-06-24T05:40:17.122Z,102349.72
2023-06-24T05:45:21.155Z,102345.25
2023-06-24T05:50:24.929Z,102339.06
2023-06-24T05:55:30.022Z,102342.25
2023-06-24T06:00:34.199Z,102335.69
2023-06-24T06:05:38.231Z,102347.88
2023-06-24T06:10:43.393Z,102338.72
2023-06-24T06:15:47.149Z,102352.00
2023-06-24T06:20:50.862Z,102348.78
2023-06-24T06:25:55.958Z,102356.09
2023-06-24T06:30:59.933Z,102357.84
2023-06-24T06:36:03.738Z,102364.34
2023-06-24T06:41:08.880Z,102364.69
2023-06-24T06:46:12.665Z,102364.25
2023-06-24T06:51:16.501Z,102364.59
2023-06-24T06:56:25.384Z,102362.72
2023-06-24T07:01:29.202Z,102370.25
2023-06-24T07:06:33.646Z,102373.31
2023-06-24T07:11:38.779Z,102372.06
2023-06-24T07:16:42.579Z,102371.28
2023-06-24T07:21:46.334Z,102370.94
2023-06-24T07:26:51.465Z,102382.84
2023-06-24T07:31:55.280Z,102382.06
2023-06-24T07:37:01.435Z,102377.44
2023-06-24T07:42:09.633Z,102383.72
2023-06-24T07:47:13.706Z,102379.56
2023-06-24T07:52:17.535Z,102379.81
2023-06-24T07:57:22.657Z,102374.25
2023-06-24T08:02:27.293Z,102372.94
2023-06-24T08:07:31.326Z,102374.16
2023-06-24T08:12:36.490Z,102366.47
2023-06-24T08:17:40.291Z,102365.31
2023-06-24T08:22:44.105Z,102369.37
2023-06-24T08:27:49.829Z,102366.38
2023-06-24T08:32:53.769Z,102359.72
2023-06-24T08:37:57.555Z,102369.00
2023-06-24T08:43:02.796Z,102360.72
2023-06-24T08:48:07.747Z,102355.19
2023-06-24T08:53:12.901Z,102347.88
2023-06-24T08:58:18.027Z,102356.41
2023-06-24T09:03:21.874Z,102352.37
2023-06-24T09:08:25.702Z,102343.00
2023-06-24T09:13:36.676Z,102347.75
2023-06-24T09:18:40.535Z,102345.53
2023-06-24T09:23:45.753Z,102340.41
2023-06-24T09:28:52.072Z,102336.16
2023-06-24T09:33:59.223Z,102336.31
2023-06-24T09:39:14.353Z,102335.69
2023-06-24T09:44:29.106Z,102321.16
2023-06-24T09:49:32.859Z,102320.56
2023-06-24T09:54:38.075Z,102324.56
2023-06-24T09:59:45.025Z,102321.41
2023-06-24T10:04:49.028Z,102319.06
2023-06-24T10:09:52.782Z,102315.78
2023-06-24T10:14:57.898Z,102312.31
2023-06-24T10:20:06.017Z,102320.25
2023-06-24T10:25:10.114Z,102304.13
2023-06-24T10:30:21.182Z,102302.94
2023-06-24T10:35:27.215Z,102314.66
2023-06-24T10:40:39.227Z,102307.91
2023-06-24T10:45:51.071Z,102294.91
2023-06-24T10:50:54.991Z,102297.22
2023-06-24T10:55:59.812Z,102297.09
2023-06-24T11:01:11.443Z,102291.75
2023-06-24T11:06:15.221Z,102298.66
2023-06-24T11:11:23.333Z,102284.72
2023-06-24T11:16:28.504Z,102286.38
2023-06-24T11:21:33.499Z,102282.62
2023-06-24T11:26:37.504Z,102282.72
2023-06-24T11:31:42.655Z,102267.97
2023-06-24T11:36:46.968Z,102265.47
2023-06-24T11:41:50.943Z,102259.69
2023-06-24T11:47:06.096Z,102252.62
2023-06-24T11:52:11.633Z,102242.19
2023-06-24T11:57:16.466Z,102246.13
2023-06-24T12:02:21.795Z,102247.16
2023-06-24T12:07:25.552Z,102244.72
2023-06-24T12:12:29.376Z,102245.50
2023-06-24T12:17:34.561Z,102239.78
2023-06-24T12:22:38.819Z,102232.66
2023-06-24T12:27:44.668Z,102230.94
2023-06-24T12:32:52.509Z,102223.53
2023-06-24T12:37:56.325Z,102205.63
2023-06-24T12:43:00.981Z,102216.47
2023-06-24T12:48:06.798Z,102213.66
2023-06-24T12:53:11.861Z,102211.06
2023-06-24T12:58:16.205Z,102198.28
2023-06-24T13:03:21.390Z,102203.34
2023-06-24T13:08:25.086Z,102203.03
2023-06-24T13:13:28.828Z,102182.91
2023-06-24T13:18:33.858Z,102194.75
2023-06-24T13:23:38.622Z,102190.94
2023-06-24T13:28:43.202Z,102187.16
2023-06-24T13:33:48.366Z,102193.44
2023-06-24T13:38:52.113Z,102188.06
2023-06-24T13:43:55.827Z,102193.03
2023-06-24T13:49:04.020Z,102184.56
2023-06-24T13:54:10.017Z,102178.72
2023-06-24T13:59:13.770Z,102178.66
2023-06-24T14:04:19.050Z,102169.97
2023-06-24T14:09:22.817Z,102170.50
2023-06-24T14:14:26.609Z,102170.00
2023-06-24T14:19:31.682Z,102152.75
2023-06-24T14:24:35.515Z,102154.81
2023-06-24T14:29:39.261Z,102148.81
2023-06-24T14:34:44.410Z,102146.31
2023-06-24T14:39:48.155Z,102141.53
2023-06-24T14:44:51.929Z,102139.03
2023-06-24T14:49:57.018Z,102138.81
2023-06-24T14:55:00.726Z,102134.53
2023-06-24T15:00:05.215Z,102139.34
2023-06-24T15:05:10.751Z,102130.31
2023-06-24T15:10:14.480Z,102125.75
2023-06-24T15:15:18.457Z,102119.41
2023-06-24T15:20:23.747Z,102121.84
2023-06-24T15:25:28.631Z,102127.78
2023-06-24T15:30:32.529Z,102109.28
2023-06-24T15:35:39.313Z,102114.63
2023-06-24T15:40:44.128Z,102111.81
2023-06-24T15:45:48.045Z,102111.81
2023-06-24T15:50:53.153Z,102100.13
2023-06-24T15:55:57.114Z,102106.50
2023-06-24T16:01:02.913Z,102099.78
2023-06-24T16:06:08.061Z,102098.78
2023-06-24T16:11:11.776Z,102076.53
2023-06-24T16:16:15.561Z,102073.78
2023-06-24T16:21:20.659Z,102069.56
2023-06-24T16:26:24.452Z,102069.75
2023-06-24T16:31:28.236Z,102049.41
2023-06-24T16:36:33.391Z,102048.91
2023-06-24T16:41:37.156Z,102052.69
2023-06-24T16:46:40.923Z,102050.25
2023-06-24T16:51:46.056Z,102049.75
2023-06-24T16:56:49.934Z,102056.19
2023-06-24T17:01:53.733Z,102057.19
2023-06-24T17:06:58.952Z,102046.78
2023-06-24T17:12:03.960Z,102053.25
2023-06-24T17:17:07.770Z,102042.81
2023-06-24T17:22:14.205Z,102041.34
2023-06-24T17:27:17.953Z,102037.09
2023-06-24T17:32:21.732Z,102039.03
2023-06-24T17:37:26.982Z,102040.16
2023-06-24T17:42:30.708Z,102034.13
2023-06-24T17:47:34.421Z,102034.28
2023-06-24T17:52:39.558Z,102030.91
2023-06-24T17:57:43.295Z,102023.97
2023-06-24T18:02:47.171Z,102032.94
2023-06-24T18:07:52.309Z,102034.84
2023-06-24T18:12:56.061Z,102022.63
2023-06-24T18:17:59.830Z,102026.28
2023-06-24T18:23:04.959Z,102022.91
2023-06-24T18:28:08.713Z,102015.94
2023-06-24T18:33:12.411Z,102011.66
2023-06-24T18:38:18.004Z,102009.97
2023-06-24T18:43:21.694Z,102010.97
2023-06-24T18:48:25.386Z,102004.88
2023-06-24T18:53:31.339Z,102004.97
2023-06-24T18:58:37.325Z,101999.75
2023-06-24T19:03:42.515Z,102010.44
2023-06-24T19:08:53.196Z,101999.81
2023-06-24T19:13:56.879Z,102007.88
2023-06-24T19:19:03.454Z,102000.00
2023-06-24T19:24:08.928Z,101997.38
2023-06-24T19:29:12.632Z,102005.34
2023-06-24T19:34:17.471Z,101995.66
2023-06-24T19:39:22.588Z,102003.66
2023-06-24T19:44:26.330Z,102008.09
2023-06-24T19:49:30.203Z,101997.53
2023-06-24T19:54:35.266Z,101993.16
2023-06-24T19:59:39.022Z,102001.09
2023-06-24T20:04:42.794Z,102005.53
2023-06-24T20:09:47.960Z,102002.00
2023-06-24T20:14:51.736Z,102005.53
2023-06-24T20:19:56.065Z,101996.69
2023-06-24T20:25:01.190Z,102003.78
2023-06-24T20:30:05.923Z,102000.22
2023-06-24T20:35:10.324Z,101997.53
2023-06-24T20:40:15.544Z,102011.62
2023-06-24T20:45:19.974Z,102004.53
2023-06-24T20:50:23.690Z,102003.59
2023-06-24T20:55:28.805Z,102006.91
2023-06-24T21:00:32.625Z,102008.59
2023-06-24T21:05:36.375Z,102006.72
2023-06-24T21:10:41.475Z,102008.38
2023-06-24T21:15:45.500Z,102001.19
2023-06-24T21:20:49.344Z,102004.66
2023-06-24T21:25:55.292Z,102001.03
2023-06-24T21:30:59.103Z,101990.38
2023-06-24T21:36:02.914Z,101989.53
2023-06-24T21:41:08.049Z,101991.31
2023-06-24T21:46:11.866Z,101989.47
2023-06-24T21:51:15.632Z,101988.53
2023-06-24T21:56:20.748Z,101986.75
2023-06-24T22:01:24.718Z,101981.38
2023-06-24T22:06:28.461Z,101978.66
2023-06-24T22:11:35.858Z,101987.38
2023-06-24T22:16:42.887Z,101982.03
2023-06-24T22:21:46.719Z,101982.81
2023-06-24T22:26:51.780Z,101980.06
2023-06-24T22:31:55.522Z,101989.63
2023-06-24T22:36:59.290Z,101966.69
2023-06-24T22:42:04.622Z,101974.53
2023-06-24T22:47:08.670Z,101973.59
2023-06-24T22:52:12.402Z,101978.75
2023-06-24T22:57:17.459Z,101972.50
2023-06-24T23:02:21.781Z,101973.31
2023-06-24T23:07:26.656Z,101960.94
2023-06-24T23:12:32.956Z,101956.34
2023-06-24T23:17:36.850Z,101955.37
2023-06-24T23:22:41.189Z,101957.03
2023-06-24T23:27:49.906Z,101950.78
2023-06-24T23:32:55.401Z,101945.41
2023-06-24T23:37:59.503Z,101937.38
2023-06-24T23:43:05.558Z,101932.94
2023-06-24T23:48:09.519Z,101928.41
2023-06-24T23:53:13.355Z,101920.34
2023-06-24T23:58:18.383Z,101916.72
